Aviation Digital Data Service (ADDS)

Output produced by METARs form (0953 UTC 22 May 2018)
found at http://aviationweather.gov/adds/metars/
 
METAR text: OAIX 220858Z 24008KT 9999 BKN130 22/00 A3011 RMK AO2A SLP126 T02240002 57014 $
Conditions at: OAIX (BAGRAM , AF) observed 0858 UTC 22 May 2018
Temperature: 22.4°C (72°F)
Dewpoint: 0.2°C (32°F) [RH = 23%]
Pressure (altimeter): 30.11 inches Hg (1019.7 mb)
[Sea-level pressure: 1012.6 mb]
Winds: from the WSW (240 degrees) at 9 MPH (8 knots; 4.2 m/s)
Visibility: 6 or more miles (10+ km)
Ceiling: 13000 feet AGL
Clouds: broken clouds at 13000 feet AGL
Weather:
SOME DATA ABOVE MAY BE INACCURATE!!!
"$" is an indication the sensor requires maintenance

METAR text: OAIX 220758Z 19004KT 9999 SCT120 23/01 A3013 RMK AO2A SLP126 T02320005 $
Conditions at: OAIX (BAGRAM , AF) observed 0758 UTC 22 May 2018
Temperature: 23.2°C (74°F)
Dewpoint: 0.5°C (33°F) [RH = 22%]
Pressure (altimeter): 30.13 inches Hg (1020.4 mb)
[Sea-level pressure: 1012.6 mb]
Winds: from the S (190 degrees) at 5 MPH (4 knots; 2.1 m/s)
Visibility: 6 or more miles (10+ km)
Ceiling: at least 12,000 feet AGL
Clouds: scattered clouds at 12000 feet AGL
Weather:
SOME DATA ABOVE MAY BE INACCURATE!!!
"$" is an indication the sensor requires maintenance

METAR text: OAIX 220658Z 00000KT 9999 FEW090 21/04 A3015 RMK AO2A SLP133 T02080038 $
Conditions at: OAIX (BAGRAM , AF) observed 0658 UTC 22 May 2018
Temperature: 20.8°C (69°F)
Dewpoint: 3.8°C (39°F) [RH = 33%]
Pressure (altimeter): 30.15 inches Hg (1021.1 mb)
[Sea-level pressure: 1013.3 mb]
Winds: calm
Visibility: 6 or more miles (10+ km)
Ceiling: at least 12,000 feet AGL
Clouds: few clouds at 9000 feet AGL
Weather:
SOME DATA ABOVE MAY BE INACCURATE!!!
"$" is an indication the sensor requires maintenance

METAR text: OAIX 220557Z 00000KT 9999 FEW080 20/04 A3013 RMK AO2A SLP140 T01980043 10198 20082 58002 $
Conditions at: OAIX (BAGRAM , AF) observed 0557 UTC 22 May 2018
Temperature: 19.8°C (68°F)
Dewpoint: 4.3°C (40°F) [RH = 36%]
Pressure (altimeter): 30.13 inches Hg (1020.4 mb)
[Sea-level pressure: 1014.0 mb]
Winds: calm
Visibility: 6 or more miles (10+ km)
Ceiling: at least 12,000 feet AGL
Clouds: few clouds at 8000 feet AGL
Weather:
SOME DATA ABOVE MAY BE INACCURATE!!!
"$" is an indication the sensor requires maintenance

METAR text: OAIX 220458Z 00000KT 9999 FEW080 18/05 A3017 RMK AO2A SLP146 T01800051 $
Conditions at: OAIX (BAGRAM , AF) observed 0458 UTC 22 May 2018
Temperature: 18.0°C (64°F)
Dewpoint: 5.1°C (41°F) [RH = 43%]
Pressure (altimeter): 30.17 inches Hg (1021.8 mb)
[Sea-level pressure: 1014.6 mb]
Winds: calm
Visibility: 6 or more miles (10+ km)
Ceiling: at least 12,000 feet AGL
Clouds: few clouds at 8000 feet AGL
Weather:
SOME DATA ABOVE MAY BE INACCURATE!!!
"$" is an indication the sensor requires maintenance

METAR text: OAIX 220358Z AUTO 00000KT 9999 CLR 17/05 A3017 RMK AO2 SLP146 T01650051 $
Conditions at: OAIX (BAGRAM , AF) observed 0358 UTC 22 May 2018
Temperature: 16.5°C (62°F)
Dewpoint: 5.1°C (41°F) [RH = 47%]
Pressure (altimeter): 30.17 inches Hg (1021.8 mb)
[Sea-level pressure: 1014.6 mb]
Winds: calm
Visibility: 6 or more miles (10+ km)
Ceiling: at least 12,000 feet AGL
Clouds: sky clear below 12,000 feet AGL
Weather:
SOME DATA ABOVE MAY BE INACCURATE!!!
"$" is an indication the sensor requires maintenance

METAR text: OAIX 220258Z AUTO 00000KT 9999 CLR 15/06 A3017 RMK AO2 SLP146 T01470056 52012 $
Conditions at: OAIX (BAGRAM , AF) observed 0258 UTC 22 May 2018
Temperature: 14.7°C (58°F)
Dewpoint: 5.6°C (42°F) [RH = 54%]
Pressure (altimeter): 30.17 inches Hg (1021.8 mb)
[Sea-level pressure: 1014.6 mb]
Winds: calm
Visibility: 6 or more miles (10+ km)
Ceiling: at least 12,000 feet AGL
Clouds: sky clear below 12,000 feet AGL
Weather:
SOME DATA ABOVE MAY BE INACCURATE!!!
"$" is an indication the sensor requires maintenance

METAR text: OAIX 220158Z AUTO 27003KT 9000 HZ CLR 11/07 A3016 RMK AO2 SLP149 T01140067 $
Conditions at: OAIX (BAGRAM , AF) observed 0158 UTC 22 May 2018
Temperature: 11.4°C (53°F)
Dewpoint: 6.7°C (44°F) [RH = 73%]
Pressure (altimeter): 30.16 inches Hg (1021.4 mb)
[Sea-level pressure: 1014.9 mb]
Winds: from the W (270 degrees) at 3 MPH (3 knots; 1.6 m/s)
Visibility: 6 miles (9 km)
Ceiling: at least 12,000 feet AGL
Clouds: sky clear below 12,000 feet AGL
Weather: HZ  (haze)
SOME DATA ABOVE MAY BE INACCURATE!!!
"$" is an indication the sensor requires maintenance

METAR text: OAIX 220058Z AUTO 00000KT 8000 HZ CLR 10/06 A3014 RMK AO2 SLP142 T00960063 $
Conditions at: OAIX (BAGRAM , AF) observed 0058 UTC 22 May 2018
Temperature: 9.6°C (49°F)
Dewpoint: 6.3°C (43°F) [RH = 80%]
Pressure (altimeter): 30.14 inches Hg (1020.7 mb)
[Sea-level pressure: 1014.2 mb]
Winds: calm
Visibility: 5 miles (8 km)
Ceiling: at least 12,000 feet AGL
Clouds: sky clear below 12,000 feet AGL
Weather: HZ  (haze)
SOME DATA ABOVE MAY BE INACCURATE!!!
"$" is an indication the sensor requires maintenance

METAR text: OAIX 212358Z AUTO 24004KT 9999 CLR 09/06 A3013 RMK AO2 SLP139 57003
Conditions at: OAIX (BAGRAM , AF) observed 2358 UTC 21 May 2018
Temperature: 9.0°C (48°F)
Dewpoint: 6.0°C (43°F) [RH = 81%]
Pressure (altimeter): 30.13 inches Hg (1020.4 mb)
[Sea-level pressure: 1013.9 mb]
Winds: from the WSW (240 degrees) at 5 MPH (4 knots; 2.1 m/s)
Visibility: 6 or more miles (10+ km)
Ceiling: at least 12,000 feet AGL
Clouds: sky clear below 12,000 feet AGL
Weather: automated observation with no human augmentation;
there may or may not be significant weather present at this time

METAR text: OAIX 212258Z AUTO 00000KT 9999 SCT120 10/06 A3013 RMK AO2 SLP136 T00970063 $
Conditions at: OAIX (BAGRAM , AF) observed 2258 UTC 21 May 2018
Temperature: 9.7°C (49°F)
Dewpoint: 6.3°C (43°F) [RH = 79%]
Pressure (altimeter): 30.13 inches Hg (1020.4 mb)
[Sea-level pressure: 1013.6 mb]
Winds: calm
Visibility: 6 or more miles (10+ km)
Ceiling: at least 12,000 feet AGL
Clouds: scattered clouds at 12000 feet AGL
Weather:
SOME DATA ABOVE MAY BE INACCURATE!!!
"$" is an indication the sensor requires maintenance

METAR text: OAIX 212158Z AUTO 24003KT 9999 CLR 09/07 A3013 RMK AO2 SLP139 T00900065 $
Conditions at: OAIX (BAGRAM , AF) observed 2158 UTC 21 May 2018
Temperature: 9.0°C (48°F)
Dewpoint: 6.5°C (44°F) [RH = 84%]
Pressure (altimeter): 30.13 inches Hg (1020.4 mb)
[Sea-level pressure: 1013.9 mb]
Winds: from the WSW (240 degrees) at 3 MPH (3 knots; 1.6 m/s)
Visibility: 6 or more miles (10+ km)
Ceiling: at least 12,000 feet AGL
Clouds: sky clear below 12,000 feet AGL
Weather:
SOME DATA ABOVE MAY BE INACCURATE!!!
"$" is an indication the sensor requires maintenance

METAR text: OAIX 212058Z AUTO 21003KT 9999 CLR 09/07 A3014 RMK AO2 SLPNO T00940066 57013 $
Conditions at: OAIX (BAGRAM , AF) observed 2058 UTC 21 May 2018
Temperature: 9.4°C (49°F)
Dewpoint: 6.6°C (44°F) [RH = 83%]
Pressure (altimeter): 30.14 inches Hg (1020.7 mb)
Winds: from the SSW (210 degrees) at 3 MPH (3 knots; 1.6 m/s)
Visibility: 6 or more miles (10+ km)
Ceiling: at least 12,000 feet AGL
Clouds: sky clear below 12,000 feet AGL
Weather:
SOME DATA ABOVE MAY BE INACCURATE!!!
"$" is an indication the sensor requires maintenance

METAR text: OAIX 211958Z AUTO 00000KT 9999 CLR 13/05 A3015 RMK AO2 SLP136 T01340047 $
Conditions at: OAIX (BAGRAM , AF) observed 1958 UTC 21 May 2018
Temperature: 13.4°C (56°F)
Dewpoint: 4.7°C (40°F) [RH = 56%]
Pressure (altimeter): 30.15 inches Hg (1021.1 mb)
[Sea-level pressure: 1013.6 mb]
Winds: calm
Visibility: 6 or more miles (10+ km)
Ceiling: at least 12,000 feet AGL
Clouds: sky clear below 12,000 feet AGL
Weather:
SOME DATA ABOVE MAY BE INACCURATE!!!
"$" is an indication the sensor requires maintenance

METAR text: OAIX 211858Z 09004KT 9999 CLR 14/05 A3017 RMK AO2A SLP146 T01400052 402040091 $
Conditions at: OAIX (BAGRAM , AF) observed 1858 UTC 21 May 2018
Temperature: 14.0°C (57°F)
Dewpoint: 5.2°C (41°F) [RH = 55%]
Pressure (altimeter): 30.17 inches Hg (1021.8 mb)
[Sea-level pressure: 1014.6 mb]
Winds: from the E (90 degrees) at 5 MPH (4 knots; 2.1 m/s)
Visibility: 6 or more miles (10+ km)
Ceiling: at least 12,000 feet AGL
Clouds: sky clear below 12,000 feet AGL
Weather:
SOME DATA ABOVE MAY BE INACCURATE!!!
"$" is an indication the sensor requires maintenance

METAR text: OAIX 211758Z 05006KT 9999 CLR 14/05 A3018 RMK AO2A SLPNO T01430046 10183 20137 50007 $
Conditions at: OAIX (BAGRAM , AF) observed 1758 UTC 21 May 2018
Temperature: 14.3°C (58°F)
Dewpoint: 4.6°C (40°F) [RH = 52%]
Pressure (altimeter): 30.18 inches Hg (1022.1 mb)
Winds: from the NE (50 degrees) at 7 MPH (6 knots; 3.1 m/s)
Visibility: 6 or more miles (10+ km)
Ceiling: at least 12,000 feet AGL
Clouds: sky clear below 12,000 feet AGL
Weather:
SOME DATA ABOVE MAY BE INACCURATE!!!
"$" is an indication the sensor requires maintenance

METAR text: OAIX 211658Z 31008KT 9999 FEW095 14/06 A3018 RMK AO2A SLP156 T01390061 $
Conditions at: OAIX (BAGRAM , AF) observed 1658 UTC 21 May 2018
Temperature: 13.9°C (57°F)
Dewpoint: 6.1°C (43°F) [RH = 59%]
Pressure (altimeter): 30.18 inches Hg (1022.1 mb)
[Sea-level pressure: 1015.6 mb]
Winds: from the NW (310 degrees) at 9 MPH (8 knots; 4.2 m/s)
Visibility: 6 or more miles (10+ km)
Ceiling: at least 12,000 feet AGL
Clouds: few clouds at 9500 feet AGL
Weather:
SOME DATA ABOVE MAY BE INACCURATE!!!
"$" is an indication the sensor requires maintenance

METAR text: OAIX 211558Z 00000KT 9999 CLR 16/05 A3016 RMK AO2A SLP146
Conditions at: OAIX (BAGRAM , AF) observed 1558 UTC 21 May 2018
Temperature: 16.0°C (61°F)
Dewpoint: 5.0°C (41°F) [RH = 48%]
Pressure (altimeter): 30.16 inches Hg (1021.4 mb)
[Sea-level pressure: 1014.6 mb]
Winds: calm
Visibility: 6 or more miles (10+ km)
Ceiling: at least 12,000 feet AGL
Clouds: sky clear below 12,000 feet AGL
Weather: no significant weather observed at this time

METAR text: OAIX 211458Z 02007KT 9999 FEW120 SCT150 17/06 A3015 RMK AO2A SLP143 T01650062 53007 $
Conditions at: OAIX (BAGRAM , AF) observed 1458 UTC 21 May 2018
Temperature: 16.5°C (62°F)
Dewpoint: 6.2°C (43°F) [RH = 51%]
Pressure (altimeter): 30.15 inches Hg (1021.1 mb)
[Sea-level pressure: 1014.3 mb]
Winds: from the NNE (20 degrees) at 8 MPH (7 knots; 3.6 m/s)
Visibility: 6 or more miles (10+ km)
Ceiling: at least 12,000 feet AGL
Clouds: few clouds at 12000 feet AGL
scattered clouds at 15000 feet AGL
Weather:
SOME DATA ABOVE MAY BE INACCURATE!!!
"$" is an indication the sensor requires maintenance

METAR text: OAIX 211358Z 23003KT 9999 SCT120 17/07 A3015 RMK AO2A SLP146 T01690066 $
Conditions at: OAIX (BAGRAM , AF) observed 1358 UTC 21 May 2018
Temperature: 16.9°C (62°F)
Dewpoint: 6.6°C (44°F) [RH = 51%]
Pressure (altimeter): 30.15 inches Hg (1021.1 mb)
[Sea-level pressure: 1014.6 mb]
Winds: from the SW (230 degrees) at 3 MPH (3 knots; 1.6 m/s)
Visibility: 6 or more miles (10+ km)
Ceiling: at least 12,000 feet AGL
Clouds: scattered clouds at 12000 feet AGL
Weather:
SOME DATA ABOVE MAY BE INACCURATE!!!
"$" is an indication the sensor requires maintenance

METAR text: OAIX 211258Z 00000KT 9999 FEW120 18/04 A3013 RMK AO2A SLP139 T01790041 $
Conditions at: OAIX (BAGRAM , AF) observed 1258 UTC 21 May 2018
Temperature: 17.9°C (64°F)
Dewpoint: 4.1°C (39°F) [RH = 40%]
Pressure (altimeter): 30.13 inches Hg (1020.4 mb)
[Sea-level pressure: 1013.9 mb]
Winds: calm
Visibility: 6 or more miles (10+ km)
Ceiling: at least 12,000 feet AGL
Clouds: few clouds at 12000 feet AGL
Weather:
SOME DATA ABOVE MAY BE INACCURATE!!!
"$" is an indication the sensor requires maintenance

METAR text: OAIX 211158Z 27008KT 9999 FEW095 SCT130 BKN350 18/04 A3013 RMK AO2A SLP136 60003 70003 T01840043 10204 20155 $
Conditions at: OAIX (BAGRAM , AF) observed 1158 UTC 21 May 2018
Temperature: 18.4°C (65°F)
Dewpoint: 4.3°C (40°F) [RH = 39%]
Pressure (altimeter): 30.13 inches Hg (1020.4 mb)
[Sea-level pressure: 1013.6 mb]
Winds: from the W (270 degrees) at 9 MPH (8 knots; 4.2 m/s)
Visibility: 6 or more miles (10+ km)
Ceiling: 35000 feet AGL
Clouds: few clouds at 9500 feet AGL
scattered clouds at 13000 feet AGL
broken clouds at 35000 feet AGL
Weather:
SOME DATA ABOVE MAY BE INACCURATE!!!
"$" is an indication the sensor requires maintenance

METAR text: OAIX 211058Z 33004KT 9999 BKN120 19/04 A3011 RMK AO2A LTG DSNT NW-N SLP129 T01880044 $
Conditions at: OAIX (BAGRAM , AF) observed 1058 UTC 21 May 2018
Temperature: 18.8°C (66°F)
Dewpoint: 4.4°C (40°F) [RH = 39%]
Pressure (altimeter): 30.11 inches Hg (1019.7 mb)
[Sea-level pressure: 1012.9 mb]
Winds: from the NNW (330 degrees) at 5 MPH (4 knots; 2.1 m/s)
Visibility: 6 or more miles (10+ km)
Ceiling: 12000 feet AGL
Clouds: broken clouds at 12000 feet AGL
Weather:
SOME DATA ABOVE MAY BE INACCURATE!!!
"$" is an indication the sensor requires maintenance

METAR text: OAIX 210956Z COR VRB04KT 9999 BKN060 BKN120 19/06 A3009 RMK AO2A TSB21E40 RAE34 SLP130 P0003 T01880061 $ COR 1009
Conditions at: OAIX (BAGRAM , AF) observed 0956 UTC 21 May 2018
Temperature: 18.8°C (66°F)
Dewpoint: 6.1°C (43°F) [RH = 43%]
Pressure (altimeter): 30.09 inches Hg (1019.0 mb)
[Sea-level pressure: 1013.0 mb]
Winds: variable direction winds at 5 MPH (4 knots; 2.1 m/s)
Visibility: 6 or more miles (10+ km)
Ceiling: 6000 feet AGL
Clouds: broken clouds at 6000 feet AGL
broken clouds at 12000 feet AGL
Weather:
SOME DATA ABOVE MAY BE INACCURATE!!!
"$" is an indication the sensor requires maintenance

METAR text: OAIX 210930Z 05007G18KT 8000 -TSRA SCT032 BKN060 BKN070 BKN160 OVC350 16/06 A3012 RMK AO2A TSB21 SLP135
Conditions at: OAIX (BAGRAM , AF) observed 0930 UTC 21 May 2018
Temperature: 16.0°C (61°F)
Dewpoint: 6.0°C (43°F) [RH = 51%]
Pressure (altimeter): 30.12 inches Hg (1020.1 mb)
[Sea-level pressure: 1013.5 mb]
Winds: from the NE (50 degrees) at 8 MPH (7 knots; 3.6 m/s)
gusting to 21 MPH (18 knots; 9.4 m/s)
Visibility: 5 miles (8 km)
Ceiling: 6000 feet AGL
Clouds: scattered clouds at 3200 feet AGL
broken clouds at 6000 feet AGL
broken clouds at 7000 feet AGL
broken clouds at 16000 feet AGL
Weather: -TSRA  (light rain associated with thunderstorm(s))

METAR text: OAIX 210925Z 05008G18KT 5000 -TSRA SCT037 BKN065 BKN075 16/06 A3013 RMK TSB51 SLP139
Conditions at: OAIX (BAGRAM , AF) observed 0925 UTC 21 May 2018
Temperature: 16.0°C (61°F)
Dewpoint: 6.0°C (43°F) [RH = 51%]
Pressure (altimeter): 30.13 inches Hg (1020.4 mb)
[Sea-level pressure: 1013.9 mb]
Winds: from the NE (50 degrees) at 9 MPH (8 knots; 4.2 m/s)
gusting to 21 MPH (18 knots; 9.4 m/s)
Visibility: 3 miles (5 km)
Ceiling: 6500 feet AGL
Clouds: scattered clouds at 3700 feet AGL
broken clouds at 6500 feet AGL
broken clouds at 7500 feet AGL
Weather: -TSRA  (light rain associated with thunderstorm(s))

METAR text: OAIX 210923Z 02015G18KT 5000 TSRA SCT037 BKN060 16/05 RMK AO2A SLP139 TSB51 $
Conditions at: OAIX (BAGRAM , AF) observed 0923 UTC 21 May 2018
Temperature: 16.0°C (61°F)
Dewpoint: 5.0°C (41°F) [RH = 48%]
Pressure (altimeter): missing
[Sea-level pressure: 1013.9 mb]
Winds: from the NNE (20 degrees) at 17 MPH (15 knots; 7.8 m/s)
gusting to 21 MPH (18 knots; 9.4 m/s)
Visibility: 3 miles (5 km)
Ceiling: 6000 feet AGL
Clouds: scattered clouds at 3700 feet AGL
broken clouds at 6000 feet AGL
Weather: TSRA  (rain associated with thunderstorm(s))
SOME DATA ABOVE MAY BE INACCURATE!!!
"$" is an indication the sensor requires maintenance

METAR text: OAIX 210900Z 25016G26KT 9999 -RA VCTS BKN070 BKN100 18/04 A3010 RMK AO2A PK WND 26026/55 RAB55 $
Conditions at: OAIX (BAGRAM , AF) observed 0900 UTC 21 May 2018
Temperature: 18.0°C (64°F)
Dewpoint: 4.0°C (39°F) [RH = 39%]
Pressure (altimeter): 30.10 inches Hg (1019.4 mb)
Winds: from the WSW (250 degrees) at 18 MPH (16 knots; 8.3 m/s)
gusting to 30 MPH (26 knots; 13.5 m/s)
Visibility: 6 or more miles (10+ km)
Ceiling: 7000 feet AGL
Clouds: broken clouds at 7000 feet AGL
broken clouds at 10000 feet AGL
Weather: -RA VCTS  (light rain, thunderstorm in vicinity)
SOME DATA ABOVE MAY BE INACCURATE!!!
"$" is an indication the sensor requires maintenance

METAR text: OAIX 210758Z 34004KT 9999 SCT070 BKN120 20/06 A3011 RMK AO2A LTG DSNT NW SLP126 T01980061 $
Conditions at: OAIX (BAGRAM , AF) observed 0758 UTC 21 May 2018
Temperature: 19.8°C (68°F)
Dewpoint: 6.1°C (43°F) [RH = 41%]
Pressure (altimeter): 30.11 inches Hg (1019.7 mb)
[Sea-level pressure: 1012.6 mb]
Winds: from the NNW (340 degrees) at 5 MPH (4 knots; 2.1 m/s)
Visibility: 6 or more miles (10+ km)
Ceiling: 12000 feet AGL
Clouds: scattered clouds at 7000 feet AGL
broken clouds at 12000 feet AGL
Weather:
SOME DATA ABOVE MAY BE INACCURATE!!!
"$" is an indication the sensor requires maintenance

METAR text: OAIX 210658Z 04003KT 9999 BKN100 BKN250 18/07 A3013 RMK AO2A SLP132 T01820071 $
Conditions at: OAIX (BAGRAM , AF) observed 0658 UTC 21 May 2018
Temperature: 18.2°C (65°F)
Dewpoint: 7.1°C (45°F) [RH = 48%]
Pressure (altimeter): 30.13 inches Hg (1020.4 mb)
[Sea-level pressure: 1013.2 mb]
Winds: from the NE (40 degrees) at 3 MPH (3 knots; 1.6 m/s)
Visibility: 6 or more miles (10+ km)
Ceiling: 10000 feet AGL
Clouds: broken clouds at 10000 feet AGL
broken clouds at 25000 feet AGL
Weather:
SOME DATA ABOVE MAY BE INACCURATE!!!
"$" is an indication the sensor requires maintenance

METAR text: OAIX 210600Z 10003KT 9999 BKN100 16/07 A3011 RMK AO2A LTG DSNT E SLP137 60000 T01650072 10165 20091 58001 $
Conditions at: OAIX (BAGRAM , AF) observed 0600 UTC 21 May 2018
Temperature: 16.5°C (62°F)
Dewpoint: 7.2°C (45°F) [RH = 54%]
Pressure (altimeter): 30.11 inches Hg (1019.7 mb)
[Sea-level pressure: 1013.7 mb]
Winds: from the E (100 degrees) at 3 MPH (3 knots; 1.6 m/s)
Visibility: 6 or more miles (10+ km)
Ceiling: 10000 feet AGL
Clouds: broken clouds at 10000 feet AGL
Weather:
SOME DATA ABOVE MAY BE INACCURATE!!!
"$" is an indication the sensor requires maintenance

METAR text: OAIX 210458Z 00000KT 9999 BKN100 14/07 A3014 RMK AO2A LTG DSNT NE RAB05E22 SLP142 P0000 T01430070 $
Conditions at: OAIX (BAGRAM , AF) observed 0458 UTC 21 May 2018
Temperature: 14.3°C (58°F)
Dewpoint: 7.0°C (45°F) [RH = 61%]
Pressure (altimeter): 30.14 inches Hg (1020.7 mb)
[Sea-level pressure: 1014.2 mb]
Winds: calm
Visibility: 6 or more miles (10+ km)
Ceiling: 10000 feet AGL
Clouds: broken clouds at 10000 feet AGL
Weather:
SOME DATA ABOVE MAY BE INACCURATE!!!
"$" is an indication the sensor requires maintenance

METAR text: OAIX 210422Z 09003KT 9999 BKN090 13/08 A3014 RMK AO2A RAB05E22 SLP145
Conditions at: OAIX (BAGRAM , AF) observed 0422 UTC 21 May 2018
Temperature: 13.0°C (55°F)
Dewpoint: 8.0°C (46°F) [RH = 72%]
Pressure (altimeter): 30.14 inches Hg (1020.7 mb)
[Sea-level pressure: 1014.5 mb]
Winds: from the E (90 degrees) at 3 MPH (3 knots; 1.6 m/s)
Visibility: 6 or more miles (10+ km)
Ceiling: 9000 feet AGL
Clouds: broken clouds at 9000 feet AGL
Weather: no significant weather observed at this time

METAR text: OAIX 210405Z 11003KT 9999 -RA BKN090 13/07 A3014 RMK AO2A RAB05 SLP142
Conditions at: OAIX (BAGRAM , AF) observed 0405 UTC 21 May 2018
Temperature: 13.0°C (55°F)
Dewpoint: 7.0°C (45°F) [RH = 67%]
Pressure (altimeter): 30.14 inches Hg (1020.7 mb)
[Sea-level pressure: 1014.2 mb]
Winds: from the ESE (110 degrees) at 3 MPH (3 knots; 1.6 m/s)
Visibility: 6 or more miles (10+ km)
Ceiling: 9000 feet AGL
Clouds: broken clouds at 9000 feet AGL
Weather: -RA  (light rain)

METAR text: OAIX 210358Z 11004KT 9999 BKN090 13/07 A3014 RMK AO2A SLP142 T01340071 $
Conditions at: OAIX (BAGRAM , AF) observed 0358 UTC 21 May 2018
Temperature: 13.4°C (56°F)
Dewpoint: 7.1°C (45°F) [RH = 66%]
Pressure (altimeter): 30.14 inches Hg (1020.7 mb)
[Sea-level pressure: 1014.2 mb]
Winds: from the ESE (110 degrees) at 5 MPH (4 knots; 2.1 m/s)
Visibility: 6 or more miles (10+ km)
Ceiling: 9000 feet AGL
Clouds: broken clouds at 9000 feet AGL
Weather:
SOME DATA ABOVE MAY BE INACCURATE!!!
"$" is an indication the sensor requires maintenance

METAR text: OAIX 210258Z 00000KT 9999 FEW095 SCT160 14/07 A3014 RMK AO2A SLP142 T01410070 52010 $
Conditions at: OAIX (BAGRAM , AF) observed 0258 UTC 21 May 2018
Temperature: 14.1°C (57°F)
Dewpoint: 7.0°C (45°F) [RH = 62%]
Pressure (altimeter): 30.14 inches Hg (1020.7 mb)
[Sea-level pressure: 1014.2 mb]
Winds: calm
Visibility: 6 or more miles (10+ km)
Ceiling: at least 12,000 feet AGL
Clouds: few clouds at 9500 feet AGL
scattered clouds at 16000 feet AGL
Weather:
SOME DATA ABOVE MAY BE INACCURATE!!!
"$" is an indication the sensor requires maintenance

METAR text: OAIX 210158Z 00000KT 9999 FEW100 10/08 A3013 RMK AO2A SLP142 T01020076 $
Conditions at: OAIX (BAGRAM , AF) observed 0158 UTC 21 May 2018
Temperature: 10.2°C (50°F)
Dewpoint: 7.6°C (46°F) [RH = 84%]
Pressure (altimeter): 30.13 inches Hg (1020.4 mb)
[Sea-level pressure: 1014.2 mb]
Winds: calm
Visibility: 6 or more miles (10+ km)
Ceiling: at least 12,000 feet AGL
Clouds: few clouds at 10000 feet AGL
Weather:
SOME DATA ABOVE MAY BE INACCURATE!!!
"$" is an indication the sensor requires maintenance

METAR text: OAIX 210058Z 00000KT 9999 BKN120 10/08 A3012 RMK AO2A SLP138 T00990076 $
Conditions at: OAIX (BAGRAM , AF) observed 0058 UTC 21 May 2018
Temperature: 9.9°C (50°F)
Dewpoint: 7.6°C (46°F) [RH = 86%]
Pressure (altimeter): 30.12 inches Hg (1020.1 mb)
[Sea-level pressure: 1013.8 mb]
Winds: calm
Visibility: 6 or more miles (10+ km)
Ceiling: 12000 feet AGL
Clouds: broken clouds at 12000 feet AGL
Weather:
SOME DATA ABOVE MAY BE INACCURATE!!!
"$" is an indication the sensor requires maintenance

METAR text: OAIX 202358Z 12003KT 9999 FEW080 11/07 A3011 RMK AO2A SLP135 T01080066 10129 20102 55004 $
Conditions at: OAIX (BAGRAM , AF) observed 2358 UTC 20 May 2018
Temperature: 10.8°C (51°F)
Dewpoint: 6.6°C (44°F) [RH = 75%]
Pressure (altimeter): 30.11 inches Hg (1019.7 mb)
[Sea-level pressure: 1013.5 mb]
Winds: from the ESE (120 degrees) at 3 MPH (3 knots; 1.6 m/s)
Visibility: 6 or more miles (10+ km)
Ceiling: at least 12,000 feet AGL
Clouds: few clouds at 8000 feet AGL
Weather:
SOME DATA ABOVE MAY BE INACCURATE!!!
"$" is an indication the sensor requires maintenance

METAR text: OAIX 202258Z 04004KT 9999 SCT100 11/08 A3010 RMK AO2A SLP125 T01060076 $
Conditions at: OAIX (BAGRAM , AF) observed 2258 UTC 20 May 2018
Temperature: 10.6°C (51°F)
Dewpoint: 7.6°C (46°F) [RH = 82%]
Pressure (altimeter): 30.10 inches Hg (1019.4 mb)
[Sea-level pressure: 1012.5 mb]
Winds: from the NE (40 degrees) at 5 MPH (4 knots; 2.1 m/s)
Visibility: 6 or more miles (10+ km)
Ceiling: at least 12,000 feet AGL
Clouds: scattered clouds at 10000 feet AGL
Weather:
SOME DATA ABOVE MAY BE INACCURATE!!!
"$" is an indication the sensor requires maintenance

METAR text: OAIX 202158Z 31003KT 9999 BKN080 OVC100 11/08 A3011 RMK AO2A SLP132 T01090079 $
Conditions at: OAIX (BAGRAM , AF) observed 2158 UTC 20 May 2018
Temperature: 10.9°C (52°F)
Dewpoint: 7.9°C (46°F) [RH = 82%]
Pressure (altimeter): 30.11 inches Hg (1019.7 mb)
[Sea-level pressure: 1013.2 mb]
Winds: from the NW (310 degrees) at 3 MPH (3 knots; 1.6 m/s)
Visibility: 6 or more miles (10+ km)
Ceiling: 8000 feet AGL
Clouds: broken clouds at 8000 feet AGL
overcast cloud deck at 10000 feet AGL
Weather:
SOME DATA ABOVE MAY BE INACCURATE!!!
"$" is an indication the sensor requires maintenance